sensor_id;sensor_type;location;lat;lon;timestamp;P1;durP1;ratioP1;P2;durP2;ratioP2
25752;SDS011;13600;50.816;4.416;2023-07-31T00:32:18;19.75;;;6.00;;
25752;SDS011;13600;50.816;4.416;2023-07-31T00:51:15;21.92;;;6.05;;
25752;SDS011;13600;50.816;4.416;2023-07-31T00:53:41;14.38;;;5.60;;
25752;SDS011;13600;50.816;4.416;2023-07-31T00:56:08;22.50;;;6.28;;
25752;SDS011;13600;50.816;4.416;2023-07-31T00:58:35;18.90;;;6.18;;
25752;SDS011;13600;50.816;4.416;2023-07-31T01:01:01;13.40;;;5.22;;
25752;SDS011;13600;50.816;4.416;2023-07-31T01:03:27;15.90;;;4.97;;
25752;SDS011;13600;50.816;4.416;2023-07-31T01:11:19;23.73;;;5.97;;
25752;SDS011;13600;50.816;4.416;2023-07-31T01:13:56;17.00;;;5.55;;
25752;SDS011;13600;50.816;4.416;2023-07-31T01:16:22;17.83;;;5.88;;
25752;SDS011;13600;50.816;4.416;2023-07-31T01:18:50;20.73;;;5.43;;
25752;SDS011;13600;50.816;4.416;2023-07-31T01:21:23;22.17;;;5.60;;
25752;SDS011;13600;50.816;4.416;2023-07-31T01:26:38;21.00;;;5.47;;
25752;SDS011;13600;50.816;4.416;2023-07-31T01:29:14;18.25;;;6.05;;
25752;SDS011;13600;50.816;4.416;2023-07-31T01:31:55;13.15;;;5.55;;
25752;SDS011;13600;50.816;4.416;2023-07-31T01:34:24;19.40;;;6.32;;
25752;SDS011;13600;50.816;4.416;2023-07-31T01:36:53;19.52;;;6.60;;
25752;SDS011;13600;50.816;4.416;2023-07-31T01:39:19;17.33;;;6.32;;
25752;SDS011;13600;50.816;4.416;2023-07-31T01:41:46;19.67;;;6.30;;
25752;SDS011;13600;50.816;4.416;2023-07-31T01:44:11;19.85;;;6.72;;
25752;SDS011;13600;50.816;4.416;2023-07-31T01:46:37;20.98;;;6.95;;
25752;SDS011;13600;50.816;4.416;2023-07-31T01:49:03;23.67;;;6.28;;
25752;SDS011;13600;50.816;4.416;2023-07-31T01:51:30;16.35;;;6.30;;
25752;SDS011;13600;50.816;4.416;2023-07-31T01:53:59;20.50;;;6.72;;
25752;SDS011;13600;50.816;4.416;2023-07-31T01:56:25;18.20;;;6.35;;
25752;SDS011;13600;50.816;4.416;2023-07-31T01:58:50;17.00;;;5.80;;
25752;SDS011;13600;50.816;4.416;2023-07-31T02:01:16;15.10;;;6.53;;
25752;SDS011;13600;50.816;4.416;2023-07-31T02:03:41;14.43;;;6.75;;
25752;SDS011;13600;50.816;4.416;2023-07-31T02:06:07;19.48;;;6.95;;
25752;SDS011;13600;50.816;4.416;2023-07-31T02:08:33;16.25;;;6.13;;
25752;SDS011;13600;50.816;4.416;2023-07-31T02:10:58;20.15;;;7.05;;
25752;SDS011;13600;50.816;4.416;2023-07-31T02:13:24;17.10;;;6.45;;
25752;SDS011;13600;50.816;4.416;2023-07-31T02:15:49;20.50;;;6.90;;
25752;SDS011;13600;50.816;4.416;2023-07-31T02:18:15;19.55;;;6.63;;
25752;SDS011;13600;50.816;4.416;2023-07-31T02:20:41;16.15;;;6.85;;
25752;SDS011;13600;50.816;4.416;2023-07-31T02:23:07;15.77;;;6.10;;
25752;SDS011;13600;50.816;4.416;2023-07-31T02:25:32;20.30;;;6.40;;
25752;SDS011;13600;50.816;4.416;2023-07-31T02:27:58;15.02;;;5.65;;
25752;SDS011;13600;50.816;4.416;2023-07-31T02:30:23;14.77;;;5.53;;
25752;SDS011;13600;50.816;4.416;2023-07-31T02:32:49;16.13;;;6.25;;
25752;SDS011;13600;50.816;4.416;2023-07-31T02:35:15;16.67;;;6.00;;
25752;SDS011;13600;50.816;4.416;2023-07-31T02:37:41;17.45;;;5.53;;
25752;SDS011;13600;50.816;4.416;2023-07-31T02:40:08;14.23;;;5.80;;
25752;SDS011;13600;50.816;4.416;2023-07-31T02:42:34;13.15;;;5.82;;
25752;SDS011;13600;50.816;4.416;2023-07-31T02:44:59;13.00;;;5.35;;
25752;SDS011;13600;50.816;4.416;2023-07-31T02:47:25;18.55;;;5.28;;
25752;SDS011;13600;50.816;4.416;2023-07-31T02:49:51;15.25;;;5.47;;
25752;SDS011;13600;50.816;4.416;2023-07-31T02:52:16;10.77;;;5.22;;
25752;SDS011;13600;50.816;4.416;2023-07-31T02:54:42;17.25;;;5.70;;
25752;SDS011;13600;50.816;4.416;2023-07-31T02:57:07;11.35;;;5.20;;
25752;SDS011;13600;50.816;4.416;2023-07-31T02:59:33;10.60;;;5.32;;
25752;SDS011;13600;50.816;4.416;2023-07-31T03:01:59;11.85;;;5.07;;
25752;SDS011;13600;50.816;4.416;2023-07-31T03:04:25;12.77;;;4.95;;
25752;SDS011;13600;50.816;4.416;2023-07-31T03:06:51;13.98;;;5.50;;
25752;SDS011;13600;50.816;4.416;2023-07-31T03:09:17;11.15;;;4.90;;
25752;SDS011;13600;50.816;4.416;2023-07-31T03:11:44;10.88;;;4.70;;
25752;SDS011;13600;50.816;4.416;2023-07-31T03:14:10;11.70;;;4.47;;
25752;SDS011;13600;50.816;4.416;2023-07-31T03:16:35;13.73;;;4.88;;
25752;SDS011;13600;50.816;4.416;2023-07-31T03:19:01;9.45;;;4.80;;
25752;SDS011;13600;50.816;4.416;2023-07-31T03:21:26;11.35;;;5.03;;
25752;SDS011;13600;50.816;4.416;2023-07-31T03:23:52;10.98;;;5.00;;
25752;SDS011;13600;50.816;4.416;2023-07-31T03:26:18;13.07;;;4.60;;
25752;SDS011;13600;50.816;4.416;2023-07-31T03:28:44;11.93;;;4.72;;
25752;SDS011;13600;50.816;4.416;2023-07-31T03:31:09;14.50;;;5.13;;
25752;SDS011;13600;50.816;4.416;2023-07-31T03:33:37;13.35;;;5.13;;
25752;SDS011;13600;50.816;4.416;2023-07-31T03:36:02;11.35;;;5.20;;
25752;SDS011;13600;50.816;4.416;2023-07-31T03:38:28;11.38;;;4.88;;
25752;SDS011;13600;50.816;4.416;2023-07-31T03:40:54;13.60;;;5.30;;
25752;SDS011;13600;50.816;4.416;2023-07-31T03:43:20;9.90;;;5.20;;
25752;SDS011;13600;50.816;4.416;2023-07-31T03:45:45;14.93;;;5.75;;
25752;SDS011;13600;50.816;4.416;2023-07-31T03:48:11;17.20;;;5.72;;
25752;SDS011;13600;50.816;4.416;2023-07-31T03:50:37;14.70;;;5.45;;
25752;SDS011;13600;50.816;4.416;2023-07-31T03:53:02;11.70;;;5.47;;
25752;SDS011;13600;50.816;4.416;2023-07-31T03:55:28;12.95;;;5.80;;
25752;SDS011;13600;50.816;4.416;2023-07-31T03:57:53;11.68;;;4.88;;
25752;SDS011;13600;50.816;4.416;2023-07-31T04:00:19;12.35;;;6.00;;
25752;SDS011;13600;50.816;4.416;2023-07-31T04:02:45;13.15;;;5.63;;
25752;SDS011;13600;50.816;4.416;2023-07-31T04:05:12;12.40;;;5.47;;
25752;SDS011;13600;50.816;4.416;2023-07-31T04:07:38;11.50;;;5.70;;
25752;SDS011;13600;50.816;4.416;2023-07-31T04:10:04;14.98;;;5.82;;
25752;SDS011;13600;50.816;4.416;2023-07-31T04:12:30;15.60;;;5.88;;
25752;SDS011;13600;50.816;4.416;2023-07-31T04:14:56;13.30;;;6.18;;
25752;SDS011;13600;50.816;4.416;2023-07-31T04:17:21;16.15;;;5.70;;
25752;SDS011;13600;50.816;4.416;2023-07-31T04:19:47;15.48;;;6.43;;
25752;SDS011;13600;50.816;4.416;2023-07-31T04:22:12;12.52;;;5.72;;
25752;SDS011;13600;50.816;4.416;2023-07-31T04:24:39;13.35;;;6.18;;
25752;SDS011;13600;50.816;4.416;2023-07-31T04:27:04;13.05;;;4.75;;
25752;SDS011;13600;50.816;4.416;2023-07-31T04:29:30;17.63;;;6.45;;
25752;SDS011;13600;50.816;4.416;2023-07-31T04:32:00;14.30;;;5.35;;
25752;SDS011;13600;50.816;4.416;2023-07-31T04:34:26;11.45;;;5.78;;
25752;SDS011;13600;50.816;4.416;2023-07-31T04:36:57;14.27;;;5.65;;
25752;SDS011;13600;50.816;4.416;2023-07-31T04:39:23;12.18;;;5.28;;
25752;SDS011;13600;50.816;4.416;2023-07-31T04:41:48;16.30;;;6.10;;
25752;SDS011;13600;50.816;4.416;2023-07-31T04:44:15;15.43;;;5.82;;
25752;SDS011;13600;50.816;4.416;2023-07-31T04:46:40;14.45;;;5.68;;
25752;SDS011;13600;50.816;4.416;2023-07-31T04:49:07;9.98;;;5.07;;
25752;SDS011;13600;50.816;4.416;2023-07-31T04:51:33;17.25;;;6.00;;
25752;SDS011;13600;50.816;4.416;2023-07-31T04:53:58;11.48;;;5.78;;
25752;SDS011;13600;50.816;4.416;2023-07-31T04:56:24;13.35;;;5.47;;
25752;SDS011;13600;50.816;4.416;2023-07-31T04:58:49;13.55;;;6.00;;
25752;SDS011;13600;50.816;4.416;2023-07-31T05:01:15;13.00;;;5.43;;
25752;SDS011;13600;50.816;4.416;2023-07-31T05:03:40;11.55;;;5.57;;
25752;SDS011;13600;50.816;4.416;2023-07-31T05:06:06;13.98;;;5.68;;
25752;SDS011;13600;50.816;4.416;2023-07-31T05:08:32;16.92;;;5.55;;
25752;SDS011;13600;50.816;4.416;2023-07-31T05:10:58;13.75;;;5.45;;
25752;SDS011;13600;50.816;4.416;2023-07-31T05:13:24;13.82;;;5.75;;
25752;SDS011;13600;50.816;4.416;2023-07-31T05:15:49;18.85;;;6.35;;
25752;SDS011;13600;50.816;4.416;2023-07-31T05:18:15;12.80;;;5.95;;
25752;SDS011;13600;50.816;4.416;2023-07-31T05:20:40;13.27;;;6.25;;
25752;SDS011;13600;50.816;4.416;2023-07-31T05:23:06;11.43;;;5.22;;
25752;SDS011;13600;50.816;4.416;2023-07-31T05:25:32;13.10;;;6.05;;
25752;SDS011;13600;50.816;4.416;2023-07-31T05:27:57;11.38;;;5.80;;
25752;SDS011;13600;50.816;4.416;2023-07-31T05:30:23;13.02;;;5.45;;
25752;SDS011;13600;50.816;4.416;2023-07-31T05:32:48;14.40;;;5.45;;
25752;SDS011;13600;50.816;4.416;2023-07-31T05:35:14;14.38;;;6.20;;
25752;SDS011;13600;50.816;4.416;2023-07-31T05:37:40;14.75;;;5.75;;
25752;SDS011;13600;50.816;4.416;2023-07-31T05:40:05;18.38;;;5.78;;
25752;SDS011;13600;50.816;4.416;2023-07-31T05:42:31;14.43;;;5.05;;
25752;SDS011;13600;50.816;4.416;2023-07-31T05:44:57;17.30;;;5.38;;
25752;SDS011;13600;50.816;4.416;2023-07-31T05:47:22;14.00;;;5.10;;
25752;SDS011;13600;50.816;4.416;2023-07-31T05:49:49;14.13;;;5.35;;
25752;SDS011;13600;50.816;4.416;2023-07-31T05:52:17;19.13;;;5.47;;
25752;SDS011;13600;50.816;4.416;2023-07-31T05:54:43;13.45;;;6.20;;
25752;SDS011;13600;50.816;4.416;2023-07-31T05:57:10;15.30;;;5.55;;
25752;SDS011;13600;50.816;4.416;2023-07-31T05:59:36;13.07;;;5.70;;
25752;SDS011;13600;50.816;4.416;2023-07-31T06:02:02;13.30;;;5.80;;
25752;SDS011;13600;50.816;4.416;2023-07-31T06:04:27;13.60;;;5.32;;
25752;SDS011;13600;50.816;4.416;2023-07-31T06:06:53;13.60;;;5.18;;
25752;SDS011;13600;50.816;4.416;2023-07-31T06:09:19;13.90;;;5.35;;
25752;SDS011;13600;50.816;4.416;2023-07-31T06:11:46;17.45;;;5.78;;
25752;SDS011;13600;50.816;4.416;2023-07-31T06:14:11;18.42;;;6.00;;
25752;SDS011;13600;50.816;4.416;2023-07-31T06:16:37;17.75;;;6.00;;
25752;SDS011;13600;50.816;4.416;2023-07-31T06:19:03;11.20;;;5.07;;
25752;SDS011;13600;50.816;4.416;2023-07-31T06:21:28;11.30;;;5.78;;
25752;SDS011;13600;50.816;4.416;2023-07-31T06:23:55;13.23;;;5.03;;
25752;SDS011;13600;50.816;4.416;2023-07-31T06:26:20;15.73;;;5.63;;
25752;SDS011;13600;50.816;4.416;2023-07-31T06:28:46;11.55;;;4.70;;
25752;SDS011;13600;50.816;4.416;2023-07-31T06:31:11;14.77;;;5.38;;
25752;SDS011;13600;50.816;4.416;2023-07-31T06:33:37;13.50;;;5.40;;
25752;SDS011;13600;50.816;4.416;2023-07-31T06:36:03;18.48;;;5.10;;
25752;SDS011;13600;50.816;4.416;2023-07-31T06:38:28;10.50;;;5.00;;
25752;SDS011;13600;50.816;4.416;2023-07-31T06:40:54;17.67;;;5.50;;
25752;SDS011;13600;50.816;4.416;2023-07-31T06:43:19;9.73;;;4.68;;
25752;SDS011;13600;50.816;4.416;2023-07-31T06:45:46;11.40;;;4.93;;
25752;SDS011;13600;50.816;4.416;2023-07-31T06:48:13;13.60;;;5.13;;
25752;SDS011;13600;50.816;4.416;2023-07-31T06:50:39;15.70;;;4.85;;
25752;SDS011;13600;50.816;4.416;2023-07-31T06:53:04;12.15;;;4.93;;
25752;SDS011;13600;50.816;4.416;2023-07-31T06:55:30;13.43;;;5.68;;
25752;SDS011;13600;50.816;4.416;2023-07-31T06:57:56;14.25;;;5.00;;
25752;SDS011;13600;50.816;4.416;2023-07-31T07:00:22;14.35;;;4.60;;
25752;SDS011;13600;50.816;4.416;2023-07-31T07:02:48;10.35;;;5.05;;
25752;SDS011;13600;50.816;4.416;2023-07-31T07:05:15;11.73;;;4.22;;
25752;SDS011;13600;50.816;4.416;2023-07-31T07:07:41;13.10;;;5.10;;
25752;SDS011;13600;50.816;4.416;2023-07-31T07:10:07;10.45;;;4.13;;
25752;SDS011;13600;50.816;4.416;2023-07-31T07:12:33;13.32;;;4.05;;
25752;SDS011;13600;50.816;4.416;2023-07-31T07:15:00;10.05;;;3.90;;
25752;SDS011;13600;50.816;4.416;2023-07-31T07:17:26;9.15;;;4.13;;
25752;SDS011;13600;50.816;4.416;2023-07-31T07:19:52;17.17;;;3.95;;
25752;SDS011;13600;50.816;4.416;2023-07-31T07:22:18;9.25;;;3.78;;
25752;SDS011;13600;50.816;4.416;2023-07-31T07:24:44;13.25;;;4.20;;
25752;SDS011;13600;50.816;4.416;2023-07-31T07:27:10;12.27;;;4.43;;
25752;SDS011;13600;50.816;4.416;2023-07-31T07:29:35;11.82;;;3.88;;
25752;SDS011;13600;50.816;4.416;2023-07-31T07:32:02;11.38;;;3.63;;
25752;SDS011;13600;50.816;4.416;2023-07-31T07:34:28;10.85;;;3.47;;
25752;SDS011;13600;50.816;4.416;2023-07-31T07:36:54;11.10;;;4.07;;
25752;SDS011;13600;50.816;4.416;2023-07-31T07:39:20;9.35;;;3.53;;
25752;SDS011;13600;50.816;4.416;2023-07-31T07:41:46;9.00;;;4.05;;
25752;SDS011;13600;50.816;4.416;2023-07-31T07:44:12;14.40;;;4.00;;
25752;SDS011;13600;50.816;4.416;2023-07-31T07:46:38;9.50;;;3.70;;
25752;SDS011;13600;50.816;4.416;2023-07-31T07:49:04;6.85;;;3.15;;
25752;SDS011;13600;50.816;4.416;2023-07-31T07:51:30;10.20;;;3.65;;
25752;SDS011;13600;50.816;4.416;2023-07-31T07:53:59;8.55;;;3.85;;
25752;SDS011;13600;50.816;4.416;2023-07-31T07:56:25;11.70;;;3.83;;
25752;SDS011;13600;50.816;4.416;2023-07-31T07:58:51;10.00;;;3.85;;
25752;SDS011;13600;50.816;4.416;2023-07-31T08:01:17;11.02;;;3.83;;
25752;SDS011;13600;50.816;4.416;2023-07-31T08:03:42;9.32;;;3.78;;
25752;SDS011;13600;50.816;4.416;2023-07-31T08:06:08;9.35;;;3.08;;
25752;SDS011;13600;50.816;4.416;2023-07-31T08:08:37;10.07;;;4.07;;
25752;SDS011;13600;50.816;4.416;2023-07-31T08:11:03;7.03;;;3.40;;
25752;SDS011;13600;50.816;4.416;2023-07-31T08:13:29;9.70;;;3.38;;
25752;SDS011;13600;50.816;4.416;2023-07-31T08:15:55;10.48;;;3.55;;
25752;SDS011;13600;50.816;4.416;2023-07-31T08:18:20;11.93;;;3.58;;
25752;SDS011;13600;50.816;4.416;2023-07-31T08:20:46;9.45;;;3.38;;
25752;SDS011;13600;50.816;4.416;2023-07-31T08:23:13;6.65;;;3.67;;
25752;SDS011;13600;50.816;4.416;2023-07-31T08:25:38;13.88;;;3.60;;
25752;SDS011;13600;50.816;4.416;2023-07-31T08:28:05;10.60;;;3.25;;
25752;SDS011;13600;50.816;4.416;2023-07-31T08:30:31;7.32;;;3.22;;
25752;SDS011;13600;50.816;4.416;2023-07-31T08:32:58;10.85;;;3.42;;
25752;SDS011;13600;50.816;4.416;2023-07-31T08:35:24;12.18;;;3.50;;
25752;SDS011;13600;50.816;4.416;2023-07-31T08:37:50;9.05;;;3.35;;
25752;SDS011;13600;50.816;4.416;2023-07-31T08:40:16;10.13;;;3.72;;
25752;SDS011;13600;50.816;4.416;2023-07-31T08:42:45;8.65;;;3.35;;
25752;SDS011;13600;50.816;4.416;2023-07-31T08:45:15;8.00;;;4.10;;
25752;SDS011;13600;50.816;4.416;2023-07-31T08:47:44;10.68;;;4.25;;
25752;SDS011;13600;50.816;4.416;2023-07-31T08:50:14;10.82;;;3.80;;
25752;SDS011;13600;50.816;4.416;2023-07-31T08:52:41;11.82;;;4.03;;
25752;SDS011;13600;50.816;4.416;2023-07-31T08:55:07;7.85;;;3.47;;
25752;SDS011;13600;50.816;4.416;2023-07-31T08:57:34;9.20;;;3.72;;
25752;SDS011;13600;50.816;4.416;2023-07-31T09:00:02;12.07;;;3.85;;
25752;SDS011;13600;50.816;4.416;2023-07-31T09:05:01;8.02;;;3.70;;
25752;SDS011;13600;50.816;4.416;2023-07-31T09:07:27;11.98;;;3.80;;
25752;SDS011;13600;50.816;4.416;2023-07-31T09:09:55;9.10;;;3.60;;
25752;SDS011;13600;50.816;4.416;2023-07-31T09:12:20;8.38;;;3.83;;
25752;SDS011;13600;50.816;4.416;2023-07-31T09:14:46;9.30;;;3.60;;
25752;SDS011;13600;50.816;4.416;2023-07-31T09:17:12;9.93;;;4.00;;
25752;SDS011;13600;50.816;4.416;2023-07-31T09:19:38;10.00;;;4.00;;
25752;SDS011;13600;50.816;4.416;2023-07-31T09:22:04;7.82;;;3.70;;
25752;SDS011;13600;50.816;4.416;2023-07-31T09:24:31;7.55;;;3.58;;
25752;SDS011;13600;50.816;4.416;2023-07-31T09:26:58;12.18;;;4.28;;
25752;SDS011;13600;50.816;4.416;2023-07-31T09:29:25;9.82;;;3.88;;
25752;SDS011;13600;50.816;4.416;2023-07-31T09:31:51;11.27;;;4.25;;
25752;SDS011;13600;50.816;4.416;2023-07-31T09:34:18;9.23;;;4.45;;
25752;SDS011;13600;50.816;4.416;2023-07-31T09:36:47;7.82;;;3.75;;
25752;SDS011;13600;50.816;4.416;2023-07-31T09:39:16;11.35;;;4.72;;
25752;SDS011;13600;50.816;4.416;2023-07-31T09:41:44;10.82;;;4.45;;
25752;SDS011;13600;50.816;4.416;2023-07-31T09:44:12;9.68;;;4.07;;
25752;SDS011;13600;50.816;4.416;2023-07-31T09:46:38;13.88;;;4.85;;
25752;SDS011;13600;50.816;4.416;2023-07-31T09:51:30;14.80;;;4.80;;
25752;SDS011;13600;50.816;4.416;2023-07-31T09:53:56;10.93;;;5.20;;
25752;SDS011;13600;50.816;4.416;2023-07-31T09:56:22;11.13;;;5.05;;
25752;SDS011;13600;50.816;4.416;2023-07-31T09:58:48;9.85;;;5.05;;
25752;SDS011;13600;50.816;4.416;2023-07-31T10:01:15;11.98;;;5.07;;
25752;SDS011;13600;50.816;4.416;2023-07-31T10:03:41;15.65;;;4.95;;
25752;SDS011;13600;50.816;4.416;2023-07-31T10:06:09;12.45;;;5.55;;
25752;SDS011;13600;50.816;4.416;2023-07-31T10:08:35;12.02;;;5.45;;
25752;SDS011;13600;50.816;4.416;2023-07-31T10:11:02;13.27;;;5.72;;
25752;SDS011;13600;50.816;4.416;2023-07-31T10:13:29;12.73;;;5.88;;
25752;SDS011;13600;50.816;4.416;2023-07-31T10:15:57;11.48;;;5.38;;
25752;SDS011;13600;50.816;4.416;2023-07-31T10:18:24;12.40;;;5.95;;
25752;SDS011;13600;50.816;4.416;2023-07-31T10:20:52;14.18;;;5.82;;
25752;SDS011;13600;50.816;4.416;2023-07-31T10:23:19;11.63;;;5.15;;
25752;SDS011;13600;50.816;4.416;2023-07-31T10:25:45;12.98;;;5.43;;
25752;SDS011;13600;50.816;4.416;2023-07-31T10:28:12;12.93;;;5.47;;
25752;SDS011;13600;50.816;4.416;2023-07-31T10:30:38;12.93;;;5.38;;
25752;SDS011;13600;50.816;4.416;2023-07-31T10:33:04;12.57;;;5.15;;
25752;SDS011;13600;50.816;4.416;2023-07-31T10:35:31;11.85;;;4.88;;
25752;SDS011;13600;50.816;4.416;2023-07-31T10:38:03;10.93;;;4.70;;
25752;SDS011;13600;50.816;4.416;2023-07-31T10:40:37;11.88;;;5.20;;
25752;SDS011;13600;50.816;4.416;2023-07-31T10:43:03;13.98;;;5.32;;
25752;SDS011;13600;50.816;4.416;2023-07-31T10:48:05;11.52;;;5.30;;
25752;SDS011;13600;50.816;4.416;2023-07-31T10:53:23;13.98;;;5.30;;
25752;SDS011;13600;50.816;4.416;2023-07-31T10:55:50;11.45;;;5.13;;
25752;SDS011;13600;50.816;4.416;2023-07-31T10:58:18;11.52;;;4.90;;
25752;SDS011;13600;50.816;4.416;2023-07-31T11:00:45;13.63;;;5.47;;
25752;SDS011;13600;50.816;4.416;2023-07-31T11:03:13;18.73;;;5.68;;
25752;SDS011;13600;50.816;4.416;2023-07-31T11:05:40;14.32;;;5.32;;
25752;SDS011;13600;50.816;4.416;2023-07-31T11:08:29;14.18;;;5.40;;
25752;SDS011;13600;50.816;4.416;2023-07-31T11:13:31;13.15;;;5.32;;
25752;SDS011;13600;50.816;4.416;2023-07-31T11:16:05;13.48;;;4.70;;
25752;SDS011;13600;50.816;4.416;2023-07-31T11:18:31;11.90;;;5.22;;
25752;SDS011;13600;50.816;4.416;2023-07-31T11:20:56;10.30;;;5.07;;
25752;SDS011;13600;50.816;4.416;2023-07-31T11:23:22;10.73;;;4.88;;
25752;SDS011;13600;50.816;4.416;2023-07-31T11:25:48;13.07;;;5.15;;
25752;SDS011;13600;50.816;4.416;2023-07-31T11:28:15;14.95;;;5.43;;
25752;SDS011;13600;50.816;4.416;2023-07-31T11:30:42;13.65;;;5.00;;
25752;SDS011;13600;50.816;4.416;2023-07-31T11:33:09;15.60;;;5.30;;
25752;SDS011;13600;50.816;4.416;2023-07-31T11:35:40;12.85;;;5.28;;
25752;SDS011;13600;50.816;4.416;2023-07-31T11:38:09;11.27;;;5.05;;
25752;SDS011;13600;50.816;4.416;2023-07-31T11:40:43;8.65;;;4.45;;
25752;SDS011;13600;50.816;4.416;2023-07-31T11:43:09;9.68;;;4.90;;
25752;SDS011;13600;50.816;4.416;2023-07-31T11:45:36;14.23;;;4.80;;
25752;SDS011;13600;50.816;4.416;2023-07-31T11:48:03;12.38;;;4.97;;
25752;SDS011;13600;50.816;4.416;2023-07-31T11:50:30;12.75;;;5.38;;
25752;SDS011;13600;50.816;4.416;2023-07-31T11:53:00;12.07;;;4.60;;
25752;SDS011;13600;50.816;4.416;2023-07-31T11:55:32;12.48;;;4.88;;
25752;SDS011;13600;50.816;4.416;2023-07-31T11:57:58;13.13;;;5.03;;
25752;SDS011;13600;50.816;4.416;2023-07-31T12:00:25;12.15;;;5.28;;
25752;SDS011;13600;50.816;4.416;2023-07-31T12:02:53;12.15;;;5.28;;
25752;SDS011;13600;50.816;4.416;2023-07-31T12:05:19;14.40;;;5.28;;
25752;SDS011;13600;50.816;4.416;2023-07-31T12:07:49;12.70;;;5.13;;
25752;SDS011;13600;50.816;4.416;2023-07-31T12:10:29;12.60;;;4.80;;
25752;SDS011;13600;50.816;4.416;2023-07-31T12:13:06;11.15;;;4.82;;
25752;SDS011;13600;50.816;4.416;2023-07-31T12:15:36;11.32;;;4.45;;
25752;SDS011;13600;50.816;4.416;2023-07-31T12:18:10;12.32;;;5.20;;
25752;SDS011;13600;50.816;4.416;2023-07-31T12:20:40;11.95;;;4.95;;
25752;SDS011;13600;50.816;4.416;2023-07-31T12:23:06;14.05;;;4.97;;
25752;SDS011;13600;50.816;4.416;2023-07-31T12:25:32;13.00;;;5.07;;
25752;SDS011;13600;50.816;4.416;2023-07-31T12:28:08;12.90;;;4.78;;
25752;SDS011;13600;50.816;4.416;2023-07-31T12:30:37;11.75;;;4.80;;
25752;SDS011;13600;50.816;4.416;2023-07-31T12:33:04;14.65;;;5.13;;
25752;SDS011;13600;50.816;4.416;2023-07-31T12:35:37;14.18;;;5.22;;
25752;SDS011;13600;50.816;4.416;2023-07-31T12:40:31;11.93;;;4.78;;
25752;SDS011;13600;50.816;4.416;2023-07-31T12:42:57;14.50;;;5.05;;
25752;SDS011;13600;50.816;4.416;2023-07-31T12:45:23;13.43;;;5.22;;
25752;SDS011;13600;50.816;4.416;2023-07-31T12:47:48;18.63;;;5.43;;
25752;SDS011;13600;50.816;4.416;2023-07-31T12:50:15;11.35;;;5.10;;
25752;SDS011;13600;50.816;4.416;2023-07-31T12:52:40;13.27;;;5.13;;
25752;SDS011;13600;50.816;4.416;2023-07-31T12:55:06;11.75;;;5.18;;
25752;SDS011;13600;50.816;4.416;2023-07-31T12:57:32;14.93;;;5.07;;
25752;SDS011;13600;50.816;4.416;2023-07-31T12:59:58;11.32;;;5.18;;
25752;SDS011;13600;50.816;4.416;2023-07-31T13:02:23;14.02;;;5.30;;
25752;SDS011;13600;50.816;4.416;2023-07-31T13:04:49;8.63;;;4.68;;
25752;SDS011;13600;50.816;4.416;2023-07-31T13:07:15;15.63;;;5.22;;
25752;SDS011;13600;50.816;4.416;2023-07-31T13:09:41;9.15;;;4.55;;
25752;SDS011;13600;50.816;4.416;2023-07-31T13:12:06;11.88;;;4.60;;
25752;SDS011;13600;50.816;4.416;2023-07-31T13:14:32;12.82;;;4.93;;
25752;SDS011;13600;50.816;4.416;2023-07-31T13:16:58;11.07;;;4.90;;
25752;SDS011;13600;50.816;4.416;2023-07-31T13:19:23;14.05;;;4.50;;
25752;SDS011;13600;50.816;4.416;2023-07-31T13:21:49;6.93;;;3.92;;
25752;SDS011;13600;50.816;4.416;2023-07-31T13:24:15;8.60;;;3.80;;
25752;SDS011;13600;50.816;4.416;2023-07-31T13:26:40;11.43;;;4.40;;
25752;SDS011;13600;50.816;4.416;2023-07-31T13:29:06;9.63;;;4.07;;
25752;SDS011;13600;50.816;4.416;2023-07-31T13:31:32;12.15;;;4.07;;
25752;SDS011;13600;50.816;4.416;2023-07-31T13:33:58;10.90;;;4.30;;
25752;SDS011;13600;50.816;4.416;2023-07-31T13:36:25;10.43;;;3.80;;
25752;SDS011;13600;50.816;4.416;2023-07-31T13:38:50;7.57;;;3.80;;
25752;SDS011;13600;50.816;4.416;2023-07-31T13:41:16;8.77;;;3.70;;
25752;SDS011;13600;50.816;4.416;2023-07-31T13:43:41;13.63;;;4.47;;
25752;SDS011;13600;50.816;4.416;2023-07-31T13:46:07;9.68;;;4.10;;
25752;SDS011;13600;50.816;4.416;2023-07-31T13:48:34;8.10;;;4.03;;
25752;SDS011;13600;50.816;4.416;2023-07-31T13:51:01;12.85;;;4.53;;
25752;SDS011;13600;50.816;4.416;2023-07-31T13:53:26;7.55;;;3.85;;
25752;SDS011;13600;50.816;4.416;2023-07-31T13:55:52;12.82;;;4.55;;
25752;SDS011;13600;50.816;4.416;2023-07-31T13:58:17;8.10;;;3.85;;
25752;SDS011;13600;50.816;4.416;2023-07-31T14:00:43;10.60;;;4.65;;
25752;SDS011;13600;50.816;4.416;2023-07-31T14:03:09;9.68;;;3.78;;
25752;SDS011;13600;50.816;4.416;2023-07-31T14:05:34;11.50;;;3.95;;
25752;SDS011;13600;50.816;4.416;2023-07-31T14:08:00;11.13;;;4.13;;
25752;SDS011;13600;50.816;4.416;2023-07-31T14:10:26;10.00;;;3.72;;
25752;SDS011;13600;50.816;4.416;2023-07-31T14:12:51;8.93;;;3.80;;
25752;SDS011;13600;50.816;4.416;2023-07-31T14:15:18;7.95;;;4.07;;
25752;SDS011;13600;50.816;4.416;2023-07-31T14:17:43;6.43;;;4.00;;
25752;SDS011;13600;50.816;4.416;2023-07-31T14:20:10;8.13;;;3.80;;
25752;SDS011;13600;50.816;4.416;2023-07-31T14:22:36;8.90;;;4.25;;
25752;SDS011;13600;50.816;4.416;2023-07-31T14:25:03;7.38;;;4.22;;
25752;SDS011;13600;50.816;4.416;2023-07-31T14:27:28;9.05;;;3.88;;
25752;SDS011;13600;50.816;4.416;2023-07-31T14:29:54;8.20;;;4.18;;
25752;SDS011;13600;50.816;4.416;2023-07-31T14:32:20;9.60;;;3.90;;
25752;SDS011;13600;50.816;4.416;2023-07-31T14:34:48;6.97;;;4.13;;
25752;SDS011;13600;50.816;4.416;2023-07-31T14:37:14;8.80;;;3.60;;
25752;SDS011;13600;50.816;4.416;2023-07-31T14:39:39;8.68;;;3.80;;
25752;SDS011;13600;50.816;4.416;2023-07-31T14:42:05;7.45;;;3.33;;
25752;SDS011;13600;50.816;4.416;2023-07-31T14:44:31;6.93;;;3.03;;
25752;SDS011;13600;50.816;4.416;2023-07-31T14:46:56;7.63;;;3.15;;
25752;SDS011;13600;50.816;4.416;2023-07-31T14:49:22;6.10;;;3.13;;
25752;SDS011;13600;50.816;4.416;2023-07-31T14:51:48;4.28;;;2.60;;
25752;SDS011;13600;50.816;4.416;2023-07-31T14:54:14;4.75;;;2.50;;
25752;SDS011;13600;50.816;4.416;2023-07-31T14:56:39;6.72;;;2.88;;
25752;SDS011;13600;50.816;4.416;2023-07-31T14:59:05;5.88;;;2.88;;
25752;SDS011;13600;50.816;4.416;2023-07-31T15:01:32;6.25;;;2.92;;
25752;SDS011;13600;50.816;4.416;2023-07-31T15:03:58;8.63;;;3.10;;
25752;SDS011;13600;50.816;4.416;2023-07-31T15:06:24;6.65;;;2.65;;
25752;SDS011;13600;50.816;4.416;2023-07-31T15:08:49;7.43;;;2.65;;
25752;SDS011;13600;50.816;4.416;2023-07-31T15:11:15;6.30;;;2.53;;
25752;SDS011;13600;50.816;4.416;2023-07-31T15:13:41;5.50;;;2.42;;
25752;SDS011;13600;50.816;4.416;2023-07-31T15:16:06;3.58;;;1.90;;
25752;SDS011;13600;50.816;4.416;2023-07-31T15:18:32;5.25;;;2.10;;
25752;SDS011;13600;50.816;4.416;2023-07-31T15:20:58;4.95;;;2.20;;
25752;SDS011;13600;50.816;4.416;2023-07-31T15:23:24;4.00;;;2.20;;
25752;SDS011;13600;50.816;4.416;2023-07-31T15:25:51;4.75;;;1.80;;
25752;SDS011;13600;50.816;4.416;2023-07-31T15:28:17;3.58;;;1.98;;
25752;SDS011;13600;50.816;4.416;2023-07-31T15:30:43;3.10;;;1.50;;
25752;SDS011;13600;50.816;4.416;2023-07-31T15:33:10;1.90;;;1.20;;
25752;SDS011;13600;50.816;4.416;2023-07-31T15:35:35;3.20;;;1.60;;
25752;SDS011;13600;50.816;4.416;2023-07-31T15:38:01;3.72;;;1.55;;
25752;SDS011;13600;50.816;4.416;2023-07-31T15:40:27;4.03;;;1.50;;
25752;SDS011;13600;50.816;4.416;2023-07-31T15:42:52;2.20;;;1.20;;
25752;SDS011;13600;50.816;4.416;2023-07-31T15:45:18;2.22;;;1.15;;